sensor_id;sensor_type;location;lat;lon;timestamp;pressure;altitude;pressure_sealevel;temperature;humidity
40596;BME280;26304;48.794;9.820;2023-07-08T00:01:23;96536.81;;;22.12;38.36
40596;BME280;26304;48.794;9.820;2023-07-08T00:07:07;96527.00;;;22.13;38.40
40596;BME280;26304;48.794;9.820;2023-07-08T00:12:57;96530.44;;;22.06;38.19
40596;BME280;26304;48.794;9.820;2023-07-08T00:18:41;96530.09;;;22.04;38.34
40596;BME280;26304;48.794;9.820;2023-07-08T00:24:23;96514.19;;;22.04;38.66
40596;BME280;26304;48.794;9.820;2023-07-08T00:30:20;96496.81;;;22.03;38.39
40596;BME280;26304;48.794;9.820;2023-07-08T00:36:09;96504.34;;;22.05;38.04
40596;BME280;26304;48.794;9.820;2023-07-08T00:41:53;96499.44;;;22.07;38.26
40596;BME280;26304;48.794;9.820;2023-07-08T00:47:36;96503.25;;;22.02;38.33
40596;BME280;26304;48.794;9.820;2023-07-08T00:53:28;96516.88;;;22.01;38.68
40596;BME280;26304;48.794;9.820;2023-07-08T00:59:14;96517.59;;;22.05;38.65
40596;BME280;26304;48.794;9.820;2023-07-08T01:05:06;96508.94;;;22.01;38.62
40596;BME280;26304;48.794;9.820;2023-07-08T01:10:56;96516.91;;;21.97;39.09
40596;BME280;26304;48.794;9.820;2023-07-08T01:16:41;96514.59;;;22.03;38.85
40596;BME280;26304;48.794;9.820;2023-07-08T01:22:26;96496.75;;;22.10;38.43
40596;BME280;26304;48.794;9.820;2023-07-08T01:28:14;96494.94;;;22.00;38.73
40596;BME280;26304;48.794;9.820;2023-07-08T01:33:56;96488.13;;;22.03;38.77
40596;BME280;26304;48.794;9.820;2023-07-08T01:39:40;96496.13;;;21.92;39.05
40596;BME280;26304;48.794;9.820;2023-07-08T01:45:29;96501.03;;;21.93;39.02
40596;BME280;26304;48.794;9.820;2023-07-08T01:51:13;96498.78;;;21.92;39.21
40596;BME280;26304;48.794;9.820;2023-07-08T01:56:57;96490.13;;;21.88;39.74
40596;BME280;26304;48.794;9.820;2023-07-08T02:02:41;96485.28;;;21.75;40.15
40596;BME280;26304;48.794;9.820;2023-07-08T02:08:24;96484.59;;;21.64;40.68
40596;BME280;26304;48.794;9.820;2023-07-08T02:14:07;96488.34;;;21.70;40.79
40596;BME280;26304;48.794;9.820;2023-07-08T02:19:50;96488.75;;;21.65;41.31
40596;BME280;26304;48.794;9.820;2023-07-08T02:25:32;96489.13;;;21.64;41.57
40596;BME280;26304;48.794;9.820;2023-07-08T02:31:16;96486.94;;;21.51;41.82
40596;BME280;26304;48.794;9.820;2023-07-08T02:36:58;96482.41;;;21.48;41.96
40596;BME280;26304;48.794;9.820;2023-07-08T02:42:41;96495.25;;;21.50;42.00
40596;BME280;26304;48.794;9.820;2023-07-08T02:48:24;96493.34;;;21.50;42.06
40596;BME280;26304;48.794;9.820;2023-07-08T02:54:07;96497.91;;;21.46;42.20
40596;BME280;26304;48.794;9.820;2023-07-08T02:59:49;96505.09;;;21.38;42.46
40596;BME280;26304;48.794;9.820;2023-07-08T03:05:33;96514.19;;;21.34;42.40
40596;BME280;26304;48.794;9.820;2023-07-08T03:11:15;96516.84;;;21.30;42.54
40596;BME280;26304;48.794;9.820;2023-07-08T03:16:58;96521.00;;;21.35;42.39
40596;BME280;26304;48.794;9.820;2023-07-08T03:22:41;96516.47;;;21.28;42.54
40596;BME280;26304;48.794;9.820;2023-07-08T03:28:24;96533.88;;;21.26;42.86
40596;BME280;26304;48.794;9.820;2023-07-08T03:34:07;96533.88;;;21.26;42.68
40596;BME280;26304;48.794;9.820;2023-07-08T03:39:51;96536.16;;;21.20;43.03
40596;BME280;26304;48.794;9.820;2023-07-08T03:45:33;96551.28;;;21.16;43.14
40596;BME280;26304;48.794;9.820;2023-07-08T03:51:20;96561.09;;;21.12;43.45
40596;BME280;26304;48.794;9.820;2023-07-08T03:57:05;96547.53;;;21.06;43.75
40596;BME280;26304;48.794;9.820;2023-07-08T04:02:47;96540.75;;;20.94;43.93
40596;BME280;26304;48.794;9.820;2023-07-08T04:08:30;96540.78;;;20.87;44.19
40596;BME280;26304;48.794;9.820;2023-07-08T04:14:13;96536.97;;;20.88;44.23
40596;BME280;26304;48.794;9.820;2023-07-08T04:19:56;96526.81;;;20.83;44.59
40596;BME280;26304;48.794;9.820;2023-07-08T04:25:38;96531.72;;;20.74;44.72
40596;BME280;26304;48.794;9.820;2023-07-08T04:31:22;96533.25;;;20.75;44.75
40596;BME280;26304;48.794;9.820;2023-07-08T04:37:04;96534.72;;;20.76;44.76
40596;BME280;26304;48.794;9.820;2023-07-08T04:42:48;96545.28;;;20.86;44.87
40596;BME280;26304;48.794;9.820;2023-07-08T04:48:34;96537.75;;;20.92;45.01
40596;BME280;26304;48.794;9.820;2023-07-08T04:54:16;96539.97;;;21.08;45.09
40596;BME280;26304;48.794;9.820;2023-07-08T04:59:59;96537.72;;;21.03;45.31
40596;BME280;26304;48.794;9.820;2023-07-08T05:05:42;96536.22;;;20.95;44.83
40596;BME280;26304;48.794;9.820;2023-07-08T05:11:25;96532.00;;;21.19;44.19
40596;BME280;26304;48.794;9.820;2023-07-08T05:17:07;96533.78;;;21.54;43.78
40596;BME280;26304;48.794;9.820;2023-07-08T05:22:51;96521.56;;;21.75;43.52
40596;BME280;26304;48.794;9.820;2023-07-08T05:28:34;96530.69;;;21.70;43.33
40596;BME280;26304;48.794;9.820;2023-07-08T05:34:16;96526.09;;;21.74;43.38
40596;BME280;26304;48.794;9.820;2023-07-08T05:40:00;96525.72;;;21.80;43.41
40596;BME280;26304;48.794;9.820;2023-07-08T05:45:45;96524.09;;;21.93;43.32
40596;BME280;26304;48.794;9.820;2023-07-08T05:51:28;96525.97;;;21.96;43.28
40596;BME280;26304;48.794;9.820;2023-07-08T05:57:11;96527.97;;;21.77;43.82
40596;BME280;26304;48.794;9.820;2023-07-08T06:02:54;96522.31;;;21.75;43.72
40596;BME280;26304;48.794;9.820;2023-07-08T06:08:36;96529.03;;;21.87;44.11
40596;BME280;26304;48.794;9.820;2023-07-08T06:14:20;96518.06;;;21.92;44.15
40596;BME280;26304;48.794;9.820;2023-07-08T06:20:03;96528.28;;;21.94;44.36
40596;BME280;26304;48.794;9.820;2023-07-08T06:25:46;96525.19;;;22.03;44.73
40596;BME280;26304;48.794;9.820;2023-07-08T06:31:30;96522.09;;;22.08;44.70
40596;BME280;26304;48.794;9.820;2023-07-08T06:37:12;96538.03;;;22.04;44.44
40596;BME280;26304;48.794;9.820;2023-07-08T06:42:54;96557.69;;;22.03;44.53
40596;BME280;26304;48.794;9.820;2023-07-08T06:48:38;96556.56;;;22.04;44.18
40596;BME280;26304;48.794;9.820;2023-07-08T06:54:20;96585.69;;;22.04;44.17
40596;BME280;26304;48.794;9.820;2023-07-08T07:00:05;96584.16;;;22.07;44.07
40596;BME280;26304;48.794;9.820;2023-07-08T07:05:49;96595.50;;;22.07;44.58
40596;BME280;26304;48.794;9.820;2023-07-08T07:11:32;96610.25;;;22.08;44.24
40596;BME280;26304;48.794;9.820;2023-07-08T07:17:14;96614.78;;;22.11;44.28
40596;BME280;26304;48.794;9.820;2023-07-08T07:22:58;96621.56;;;22.12;44.32
40596;BME280;26304;48.794;9.820;2023-07-08T07:28:40;96630.63;;;22.15;44.28
40596;BME280;26304;48.794;9.820;2023-07-08T07:34:23;96632.91;;;22.17;44.62
40596;BME280;26304;48.794;9.820;2023-07-08T07:40:08;96626.44;;;22.18;44.34
40596;BME280;26304;48.794;9.820;2023-07-08T07:45:53;96634.78;;;22.20;44.61
40596;BME280;26304;48.794;9.820;2023-07-08T07:51:36;96630.13;;;22.38;46.79
40596;BME280;26304;48.794;9.820;2023-07-08T07:57:19;96645.25;;;22.41;45.88
40596;BME280;26304;48.794;9.820;2023-07-08T08:03:05;96645.25;;;22.41;45.71
40596;BME280;26304;48.794;9.820;2023-07-08T08:08:48;96653.88;;;22.53;46.12
40596;BME280;26304;48.794;9.820;2023-07-08T08:14:33;96652.69;;;22.61;45.75
40596;BME280;26304;48.794;9.820;2023-07-08T08:20:16;96657.97;;;22.64;45.79
40596;BME280;26304;48.794;9.820;2023-07-08T08:25:58;96660.16;;;22.73;45.63
40596;BME280;26304;48.794;9.820;2023-07-08T08:31:42;96664.69;;;22.76;45.57
40596;BME280;26304;48.794;9.820;2023-07-08T08:37:24;96664.66;;;22.83;45.53
40596;BME280;26304;48.794;9.820;2023-07-08T08:43:12;96668.41;;;22.86;45.58
40596;BME280;26304;48.794;9.820;2023-07-08T08:49:01;96659.28;;;22.91;45.25
40596;BME280;26304;48.794;9.820;2023-07-08T08:54:46;96663.00;;;22.97;45.49
40596;BME280;26304;48.794;9.820;2023-07-08T09:00:40;96664.06;;;23.07;45.42
40596;BME280;26304;48.794;9.820;2023-07-08T09:06:29;96678.22;;;22.89;45.54
40596;BME280;26304;48.794;9.820;2023-07-08T09:12:17;96668.75;;;22.92;45.37
40596;BME280;26304;48.794;9.820;2023-07-08T09:18:10;96669.09;;;22.94;45.25
40596;BME280;26304;48.794;9.820;2023-07-08T09:24:00;96650.88;;;22.96;45.29
40596;BME280;26304;48.794;9.820;2023-07-08T09:29:46;96652.75;;;22.99;45.23
40596;BME280;26304;48.794;9.820;2023-07-08T09:35:38;96658.41;;;23.04;45.15
40596;BME280;26304;48.794;9.820;2023-07-08T09:41:34;96649.25;;;23.13;45.06
40596;BME280;26304;48.794;9.820;2023-07-08T09:47:21;96652.91;;;23.30;45.14
40596;BME280;26304;48.794;9.820;2023-07-08T09:53:04;96655.91;;;23.32;45.21
40596;BME280;26304;48.794;9.820;2023-07-08T09:58:48;96660.06;;;23.33;45.54
40596;BME280;26304;48.794;9.820;2023-07-08T10:04:30;96657.81;;;23.31;45.36
40596;BME280;26304;48.794;9.820;2023-07-08T10:10:16;96659.69;;;23.31;45.79
40596;BME280;26304;48.794;9.820;2023-07-08T10:16:20;96660.06;;;23.33;45.58
40596;BME280;26304;48.794;9.820;2023-07-08T10:22:17;96664.50;;;23.43;45.23
40596;BME280;26304;48.794;9.820;2023-07-08T10:28:20;96671.63;;;23.53;45.65
40596;BME280;26304;48.794;9.820;2023-07-08T10:34:18;96670.81;;;23.56;45.63
40596;BME280;26304;48.794;9.820;2023-07-08T10:40:28;96671.13;;;23.62;45.58
40596;BME280;26304;48.794;9.820;2023-07-08T10:46:21;96671.88;;;23.63;45.58
40596;BME280;26304;48.794;9.820;2023-07-08T10:52:18;96680.56;;;23.67;46.01
40596;BME280;26304;48.794;9.820;2023-07-08T10:58:25;96684.50;;;23.51;46.13
40596;BME280;26304;48.794;9.820;2023-07-08T11:04:22;96673.88;;;23.51;45.90
40596;BME280;26304;48.794;9.820;2023-07-08T11:10:16;96676.19;;;23.49;45.97
40596;BME280;26304;48.794;9.820;2023-07-08T11:16:02;96674.69;;;23.48;46.01
40596;BME280;26304;48.794;9.820;2023-07-08T11:21:49;96673.94;;;23.48;45.81
40596;BME280;26304;48.794;9.820;2023-07-08T11:27:37;96668.63;;;23.48;45.94
40596;BME280;26304;48.794;9.820;2023-07-08T11:33:24;96661.78;;;23.50;45.71
40596;BME280;26304;48.794;9.820;2023-07-08T11:39:31;96655.69;;;23.53;47.85
40596;BME280;26304;48.794;9.820;2023-07-08T11:45:24;96647.81;;;23.77;46.58
40596;BME280;26304;48.794;9.820;2023-07-08T11:51:08;96644.16;;;23.67;46.99
40596;BME280;26304;48.794;9.820;2023-07-08T11:56:58;96631.47;;;23.82;46.71
40596;BME280;26304;48.794;9.820;2023-07-08T12:02:51;96634.59;;;23.39;47.22
40596;BME280;26304;48.794;9.820;2023-07-08T12:08:36;96638.38;;;23.42;47.30
40596;BME280;26304;48.794;9.820;2023-07-08T12:14:22;96630.81;;;23.40;47.45
40596;BME280;26304;48.794;9.820;2023-07-08T12:20:17;96636.09;;;23.40;47.66
40596;BME280;26304;48.794;9.820;2023-07-08T12:26:00;96626.28;;;23.37;47.95
40596;BME280;26304;48.794;9.820;2023-07-08T12:31:43;96619.84;;;23.38;47.68
40596;BME280;26304;48.794;9.820;2023-07-08T12:37:27;96617.19;;;23.38;48.12
40596;BME280;26304;48.794;9.820;2023-07-08T12:43:10;96612.13;;;23.51;47.77
40596;BME280;26304;48.794;9.820;2023-07-08T12:48:53;96622.00;;;23.50;48.10
40596;BME280;26304;48.794;9.820;2023-07-08T12:54:37;96610.22;;;23.51;48.04
40596;BME280;26304;48.794;9.820;2023-07-08T13:00:24;96620.25;;;23.67;48.17
40596;BME280;26304;48.794;9.820;2023-07-08T13:06:09;96613.69;;;23.79;47.84
40596;BME280;26304;48.794;9.820;2023-07-08T13:11:55;96621.09;;;23.61;47.94
40596;BME280;26304;48.794;9.820;2023-07-08T13:17:38;96617.66;;;23.64;47.71
40596;BME280;26304;48.794;9.820;2023-07-08T13:23:22;96619.13;;;23.68;47.90
40596;BME280;26304;48.794;9.820;2023-07-08T13:29:11;96609.56;;;23.74;47.97
40596;BME280;26304;48.794;9.820;2023-07-08T13:34:56;96606.78;;;23.85;47.77
40596;BME280;26304;48.794;9.820;2023-07-08T13:40:42;96609.44;;;24.16;47.52
40596;BME280;26304;48.794;9.820;2023-07-08T13:46:29;96605.59;;;24.17;46.93
40596;BME280;26304;48.794;9.820;2023-07-08T13:52:18;96608.63;;;24.19;46.85
40596;BME280;26304;48.794;9.820;2023-07-08T13:58:01;96614.69;;;24.20;47.10
40596;BME280;26304;48.794;9.820;2023-07-08T14:03:45;96602.03;;;24.27;46.88
40596;BME280;26304;48.794;9.820;2023-07-08T14:09:31;96605.81;;;24.57;47.30
40596;BME280;26304;48.794;9.820;2023-07-08T14:15:14;96593.69;;;24.53;47.26
40596;BME280;26304;48.794;9.820;2023-07-08T14:21:03;96595.97;;;24.54;47.22
40596;BME280;26304;48.794;9.820;2023-07-08T14:26:47;96595.38;;;24.43;47.24
40596;BME280;26304;48.794;9.820;2023-07-08T14:32:30;96581.72;;;24.41;47.30
40596;BME280;26304;48.794;9.820;2023-07-08T14:38:15;96581.38;;;24.39;46.99
40596;BME280;26304;48.794;9.820;2023-07-08T14:43:57;96580.56;;;24.42;47.43
40596;BME280;26304;48.794;9.820;2023-07-08T14:49:40;96577.56;;;24.40;47.45
40596;BME280;26304;48.794;9.820;2023-07-08T14:55:24;96575.66;;;24.40;47.33
40596;BME280;26304;48.794;9.820;2023-07-08T15:01:18;96574.53;;;24.41;47.30
40596;BME280;26304;48.794;9.820;2023-07-08T15:07:01;96572.94;;;24.44;46.92
40596;BME280;26304;48.794;9.820;2023-07-08T15:12:45;96568.03;;;24.42;47.50
40596;BME280;26304;48.794;9.820;2023-07-08T15:18:28;96568.81;;;24.43;47.07
40596;BME280;26304;48.794;9.820;2023-07-08T15:24:13;96564.97;;;24.44;47.33
40596;BME280;26304;48.794;9.820;2023-07-08T15:29:57;96555.84;;;24.45;47.00
40596;BME280;26304;48.794;9.820;2023-07-08T15:35:40;96555.03;;;24.48;46.98
40596;BME280;26304;48.794;9.820;2023-07-08T15:41:25;96562.94;;;24.52;47.09
40596;BME280;26304;48.794;9.820;2023-07-08T15:47:12;96566.34;;;24.52;46.99
40596;BME280;26304;48.794;9.820;2023-07-08T15:52:55;96553.84;;;24.53;46.99
40596;BME280;26304;48.794;9.820;2023-07-08T15:58:38;96559.50;;;24.55;46.93
40596;BME280;26304;48.794;9.820;2023-07-08T16:04:25;96561.00;;;24.56;47.11
40596;BME280;26304;48.794;9.820;2023-07-08T16:10:09;96560.63;;;24.57;47.10
40596;BME280;26304;48.794;9.820;2023-07-08T16:15:52;96550.31;;;24.59;46.96
40596;BME280;26304;48.794;9.820;2023-07-08T16:21:36;96551.84;;;24.60;47.22
40596;BME280;26304;48.794;9.820;2023-07-08T16:27:19;96556.31;;;24.63;47.48
40596;BME280;26304;48.794;9.820;2023-07-08T16:33:01;96551.38;;;24.65;47.22
40596;BME280;26304;48.794;9.820;2023-07-08T16:38:45;96551.78;;;24.64;47.59
40596;BME280;26304;48.794;9.820;2023-07-08T16:44:28;96547.13;;;24.68;47.31
40596;BME280;26304;48.794;9.820;2023-07-08T16:50:11;96555.50;;;24.66;46.88
40596;BME280;26304;48.794;9.820;2023-07-08T16:55:55;96554.69;;;24.70;47.13
40596;BME280;26304;48.794;9.820;2023-07-08T17:01:38;96552.03;;;24.70;47.59
40596;BME280;26304;48.794;9.820;2023-07-08T17:07:21;96549.91;;;24.84;47.61
40596;BME280;26304;48.794;9.820;2023-07-08T17:13:05;96541.22;;;24.80;47.20
40596;BME280;26304;48.794;9.820;2023-07-08T17:18:50;96548.47;;;24.80;47.32
40596;BME280;26304;48.794;9.820;2023-07-08T17:24:35;96548.22;;;24.94;50.15
40596;BME280;26304;48.794;9.820;2023-07-08T17:30:20;96541.50;;;25.06;49.52
40596;BME280;26304;48.794;9.820;2023-07-08T17:36:08;96541.66;;;25.19;48.86
40596;BME280;26304;48.794;9.820;2023-07-08T17:41:51;96517.19;;;25.28;48.71
40596;BME280;26304;48.794;9.820;2023-07-08T17:47:35;96525.91;;;25.28;48.18
40596;BME280;26304;48.794;9.820;2023-07-08T17:53:17;96530.28;;;25.38;48.10
40596;BME280;26304;48.794;9.820;2023-07-08T17:59:00;96544.19;;;25.46;48.37
40596;BME280;26304;48.794;9.820;2023-07-08T18:04:45;96550.28;;;25.47;47.58
40596;BME280;26304;48.794;9.820;2023-07-08T18:10:28;96547.78;;;25.56;47.99
40596;BME280;26304;48.794;9.820;2023-07-08T18:16:15;96556.66;;;25.69;47.20
40596;BME280;26304;48.794;9.820;2023-07-08T18:22:02;96557.66;;;25.76;47.05
40596;BME280;26304;48.794;9.820;2023-07-08T18:27:45;96562.16;;;25.79;46.83
40596;BME280;26304;48.794;9.820;2023-07-08T18:33:27;96572.53;;;25.73;47.09
40596;BME280;26304;48.794;9.820;2023-07-08T18:39:11;96575.81;;;25.81;47.30
40596;BME280;26304;48.794;9.820;2023-07-08T18:44:56;96590.47;;;25.89;46.62
40596;BME280;26304;48.794;9.820;2023-07-08T18:50:38;96588.50;;;25.93;46.94
40596;BME280;26304;48.794;9.820;2023-07-08T18:56:22;96586.50;;;25.97;45.93
40596;BME280;26304;48.794;9.820;2023-07-08T19:02:25;96618.84;;;25.99;46.59
40596;BME280;26304;48.794;9.820;2023-07-08T19:08:12;96617.16;;;26.05;47.12
40596;BME280;26304;48.794;9.820;2023-07-08T19:13:55;96618.59;;;26.10;47.84
40596;BME280;26304;48.794;9.820;2023-07-08T19:19:38;96620.50;;;26.09;47.29
40596;BME280;26304;48.794;9.820;2023-07-08T19:25:22;96629.19;;;26.14;47.77
40596;BME280;26304;48.794;9.820;2023-07-08T19:31:17;96632.44;;;25.65;47.27
40596;BME280;26304;48.794;9.820;2023-07-08T19:37:00;96629.91;;;25.58;45.88
40596;BME280;26304;48.794;9.820;2023-07-08T19:42:44;96629.50;;;25.59;45.00
40596;BME280;26304;48.794;9.820;2023-07-08T19:48:28;96641.66;;;25.60;45.20
40596;BME280;26304;48.794;9.820;2023-07-08T19:54:11;96639.00;;;25.60;46.03
40596;BME280;26304;48.794;9.820;2023-07-08T19:59:53;96652.09;;;25.51;45.01
40596;BME280;26304;48.794;9.820;2023-07-08T20:05:37;96655.44;;;25.55;44.74
40596;BME280;26304;48.794;9.820;2023-07-08T20:11:20;96662.00;;;25.27;46.04
40596;BME280;26304;48.794;9.820;2023-07-08T20:17:03;96673.00;;;25.29;46.06
40596;BME280;26304;48.794;9.820;2023-07-08T20:22:47;96675.97;;;25.34;45.28
40596;BME280;26304;48.794;9.820;2023-07-08T20:28:31;96682.50;;;25.30;45.14
40596;BME280;26304;48.794;9.820;2023-07-08T20:34:14;96672.38;;;25.21;45.01
40596;BME280;26304;48.794;9.820;2023-07-08T20:39:59;96684.50;;;25.22;45.18
40596;BME280;26304;48.794;9.820;2023-07-08T20:45:44;96680.00;;;25.19;45.14
40596;BME280;26304;48.794;9.820;2023-07-08T20:51:30;96692.16;;;25.20;45.08
40596;BME280;26304;48.794;9.820;2023-07-08T20:57:15;96693.03;;;25.13;45.41
40596;BME280;26304;48.794;9.820;2023-07-08T21:02:58;96704.88;;;25.09;45.92
40596;BME280;26304;48.794;9.820;2023-07-08T21:08:41;96705.28;;;25.07;45.64
40596;BME280;26304;48.794;9.820;2023-07-08T21:14:24;96706.75;;;25.12;45.73
40596;BME280;26304;48.794;9.820;2023-07-08T21:20:14;96708.06;;;25.00;45.60
40596;BME280;26304;48.794;9.820;2023-07-08T21:25:57;96713.09;;;24.94;46.11
40596;BME280;26304;48.794;9.820;2023-07-08T21:31:41;96699.50;;;24.89;46.39
40596;BME280;26304;48.794;9.820;2023-07-08T21:37:24;96709.78;;;24.87;46.08
40596;BME280;26304;48.794;9.820;2023-07-08T21:43:11;96713.66;;;24.82;46.16
40596;BME280;26304;48.794;9.820;2023-07-08T21:48:55;96717.38;;;24.88;46.16
40596;BME280;26304;48.794;9.820;2023-07-08T21:54:38;96716.22;;;24.89;46.15
40596;BME280;26304;48.794;9.820;2023-07-08T22:00:20;96708.00;;;24.80;45.98
40596;BME280;26304;48.794;9.820;2023-07-08T22:06:04;96715.28;;;24.76;46.52
40596;BME280;26304;48.794;9.820;2023-07-08T22:11:47;96722.50;;;24.75;46.80
40596;BME280;26304;48.794;9.820;2023-07-08T22:17:29;96724.84;;;24.70;46.35
40596;BME280;26304;48.794;9.820;2023-07-08T22:23:13;96716.19;;;24.65;47.16
40596;BME280;26304;48.794;9.820;2023-07-08T22:28:55;96715.88;;;24.60;47.59
40596;BME280;26304;48.794;9.820;2023-07-08T22:34:37;96728.75;;;24.61;47.27
40596;BME280;26304;48.794;9.820;2023-07-08T22:40:21;96720.50;;;24.52;47.79
40596;BME280;26304;48.794;9.820;2023-07-08T22:46:04;96720.91;;;24.51;47.31
40596;BME280;26304;48.794;9.820;2023-07-08T22:51:46;96725.88;;;24.48;47.38
40596;BME280;26304;48.794;9.820;2023-07-08T22:57:32;96717.63;;;24.43;47.16
40596;BME280;26304;48.794;9.820;2023-07-08T23:03:14;96724.47;;;24.40;47.51
40596;BME280;26304;48.794;9.820;2023-07-08T23:08:56;96727.59;;;24.32;47.86
40596;BME280;26304;48.794;9.820;2023-07-08T23:14:40;96735.50;;;24.39;47.72
40596;BME280;26304;48.794;9.820;2023-07-08T23:20:22;96724.59;;;24.29;47.82
40596;BME280;26304;48.794;9.820;2023-07-08T23:26:10;96736.88;;;24.20;48.15
40596;BME280;26304;48.794;9.820;2023-07-08T23:31:55;96740.66;;;24.22;47.96
40596;BME280;26304;48.794;9.820;2023-07-08T23:37:40;96739.19;;;24.18;47.85
40596;BME280;26304;48.794;9.820;2023-07-08T23:43:23;96742.34;;;24.05;48.35
40596;BME280;26304;48.794;9.820;2023-07-08T23:49:17;96745.47;;;24.00;48.81
40596;BME280;26304;48.794;9.820;2023-07-08T23:55:00;96740.53;;;23.99;48.47
